createdAt,value
2022-10-24T00:01:46.687Z,13.70
2022-10-24T00:04:16.470Z,13.60
2022-10-24T00:06:44.896Z,13.60
2022-10-24T00:09:13.111Z,13.60
2022-10-24T00:11:43.708Z,13.60
2022-10-24T00:14:12.400Z,13.60
2022-10-24T00:16:40.656Z,13.50
2022-10-24T00:19:08.953Z,13.40
2022-10-24T00:21:38.803Z,13.40
2022-10-24T00:24:07.836Z,13.40
2022-10-24T00:26:36.828Z,13.40
2022-10-24T00:29:06.163Z,13.30
2022-10-24T00:31:34.440Z,13.20
2022-10-24T00:34:03.739Z,13.20
2022-10-24T00:36:32.168Z,13.10
2022-10-24T00:39:02.322Z,13.20
2022-10-24T00:41:34.839Z,13.10
2022-10-24T00:44:17.999Z,13.00
2022-10-24T00:46:50.653Z,13.00
2022-10-24T00:49:22.561Z,13.10
2022-10-24T00:51:55.270Z,13.00
2022-10-24T00:54:25.083Z,13.20
2022-10-24T00:57:01.597Z,13.20
2022-10-24T00:59:30.961Z,13.20
2022-10-24T01:01:59.269Z,13.20
2022-10-24T01:04:27.582Z,13.20
2022-10-24T01:07:07.820Z,13.10
2022-10-24T01:09:56.473Z,13.10
2022-10-24T01:12:33.734Z,12.90
2022-10-24T01:15:09.485Z,13.00
2022-10-24T01:17:44.317Z,12.80
2022-10-24T01:20:41.005Z,12.80
2022-10-24T01:23:28.285Z,12.70
2022-10-24T01:26:12.009Z,12.70
2022-10-24T01:28:47.253Z,12.60
2022-10-24T01:31:23.934Z,12.60
2022-10-24T01:33:58.117Z,12.70
2022-10-24T01:36:32.057Z,12.60
2022-10-24T01:39:04.332Z,12.70
2022-10-24T01:41:34.486Z,12.60
2022-10-24T01:44:07.251Z,12.50
2022-10-24T01:46:41.712Z,12.50
2022-10-24T01:49:15.051Z,12.40
2022-10-24T01:51:44.984Z,12.30
2022-10-24T01:54:14.208Z,12.40
2022-10-24T01:56:42.339Z,12.30
2022-10-24T01:59:41.797Z,12.30
2022-10-24T02:02:16.822Z,12.30
2022-10-24T02:04:49.594Z,12.40
2022-10-24T02:07:21.125Z,12.30
2022-10-24T02:09:52.845Z,12.20
2022-10-24T02:12:24.748Z,12.30
2022-10-24T02:14:56.872Z,12.30
2022-10-24T02:17:26.672Z,12.30
2022-10-24T02:19:55.305Z,12.10
2022-10-24T02:22:29.829Z,12.10
2022-10-24T02:25:03.585Z,12.00
2022-10-24T02:27:35.289Z,12.20
2022-10-24T02:30:10.240Z,12.10
2022-10-24T02:32:42.655Z,12.10
2022-10-24T02:35:13.376Z,12.20
2022-10-24T02:37:48.056Z,12.10
2022-10-24T02:40:19.329Z,12.10
2022-10-24T02:42:50.578Z,12.20
2022-10-24T02:45:20.489Z,12.10
2022-10-24T02:47:51.872Z,12.10
2022-10-24T02:50:20.948Z,12.10
2022-10-24T02:52:49.440Z,12.10
2022-10-24T02:55:17.756Z,12.00
2022-10-24T02:57:45.972Z,12.20
2022-10-24T03:00:15.139Z,12.40
2022-10-24T03:02:43.663Z,12.60
2022-10-24T03:05:13.395Z,12.50
2022-10-24T03:07:41.553Z,12.50
2022-10-24T03:10:10.296Z,12.60
2022-10-24T03:12:38.491Z,12.70
2022-10-24T03:15:07.574Z,12.60
2022-10-24T03:17:35.857Z,12.50
2022-10-24T03:20:04.276Z,12.40
2022-10-24T03:22:34.017Z,12.40
2022-10-24T03:25:03.673Z,12.40
2022-10-24T03:27:33.895Z,12.30
2022-10-24T03:30:02.386Z,12.30
2022-10-24T03:32:30.731Z,12.20
2022-10-24T03:34:58.984Z,12.20
2022-10-24T03:37:27.253Z,12.10
2022-10-24T03:39:57.312Z,12.10
2022-10-24T03:42:25.458Z,12.00
2022-10-24T03:44:53.580Z,12.00
2022-10-24T03:47:21.872Z,12.00
2022-10-24T03:49:50.047Z,12.00
2022-10-24T03:52:18.683Z,12.00
2022-10-24T03:54:47.074Z,12.00
2022-10-24T03:57:16.864Z,12.00
2022-10-24T03:59:45.251Z,11.90
2022-10-24T04:02:14.232Z,12.00
2022-10-24T04:04:42.935Z,12.10
2022-10-24T04:07:11.110Z,12.30
2022-10-24T04:09:39.362Z,12.40
2022-10-24T04:12:07.630Z,12.50
2022-10-24T04:14:37.319Z,12.50
2022-10-24T04:17:06.023Z,12.80
2022-10-24T04:19:34.732Z,13.00
2022-10-24T04:22:02.905Z,13.20
2022-10-24T04:24:31.512Z,13.20
2022-10-24T04:26:59.721Z,13.20
2022-10-24T04:29:27.937Z,13.20
2022-10-24T04:31:57.535Z,13.20
2022-10-24T04:34:25.864Z,13.20
2022-10-24T04:36:54.265Z,13.20
2022-10-24T04:39:22.620Z,13.20
2022-10-24T04:41:50.856Z,13.20
2022-10-24T04:44:19.042Z,13.20
2022-10-24T04:46:50.666Z,13.20
2022-10-24T04:49:21.021Z,13.20
2022-10-24T04:51:49.292Z,13.10
2022-10-24T04:54:17.447Z,13.10
2022-10-24T04:56:45.682Z,13.10
2022-10-24T04:59:13.969Z,13.10
2022-10-24T05:01:42.241Z,13.10
2022-10-24T05:04:10.508Z,13.10
2022-10-24T05:06:42.749Z,13.10
2022-10-24T05:09:13.271Z,13.10
2022-10-24T05:11:41.585Z,13.20
2022-10-24T05:14:09.748Z,13.20
2022-10-24T05:16:38.023Z,13.10
2022-10-24T05:19:06.312Z,13.20
2022-10-24T05:21:35.962Z,13.20
2022-10-24T05:24:05.656Z,13.30
2022-10-24T05:26:34.085Z,13.10
2022-10-24T05:29:02.335Z,13.20
2022-10-24T05:33:59.879Z,13.20
2022-10-24T05:36:28.295Z,13.20
2022-10-24T05:38:57.077Z,13.20
2022-10-24T05:41:26.776Z,13.30
2022-10-24T05:43:54.938Z,13.20
2022-10-24T05:46:23.207Z,13.30
2022-10-24T05:48:51.464Z,13.30
2022-10-24T05:51:19.630Z,13.30
2022-10-24T05:53:47.773Z,13.40
2022-10-24T05:56:16.121Z,13.40
2022-10-24T05:58:45.632Z,13.40
2022-10-24T06:01:14.020Z,13.30
2022-10-24T06:03:42.490Z,13.30
2022-10-24T06:06:11.688Z,13.30
2022-10-24T06:08:40.287Z,13.20
2022-10-24T06:11:11.273Z,13.30
2022-10-24T06:13:40.567Z,13.30
2022-10-24T06:16:12.306Z,13.30
2022-10-24T06:18:41.272Z,13.40
2022-10-24T06:21:10.585Z,13.40
2022-10-24T06:23:38.970Z,13.50
2022-10-24T06:26:11.002Z,13.50
2022-10-24T06:28:40.078Z,13.50
2022-10-24T06:31:12.665Z,13.60
2022-10-24T06:33:41.446Z,13.60
2022-10-24T06:36:14.610Z,13.60
2022-10-24T06:38:43.391Z,13.60
2022-10-24T06:41:13.102Z,13.60
2022-10-24T06:43:42.477Z,13.60
2022-10-24T06:46:15.574Z,13.60
2022-10-24T06:48:44.626Z,13.70
2022-10-24T06:51:16.843Z,13.80
2022-10-24T06:53:45.111Z,13.80
2022-10-24T06:56:14.648Z,13.80
2022-10-24T06:58:43.116Z,13.80
2022-10-24T07:01:15.670Z,13.80
2022-10-24T07:03:44.781Z,13.80
2022-10-24T07:06:18.009Z,13.80
2022-10-24T07:08:47.040Z,13.80
2022-10-24T07:11:15.790Z,13.70
2022-10-24T07:13:44.052Z,13.80
2022-10-24T07:16:13.959Z,13.70
2022-10-24T07:18:42.492Z,13.70
2022-10-24T07:21:13.408Z,13.70
2022-10-24T07:23:42.072Z,13.80
2022-10-24T07:26:14.865Z,13.70
2022-10-24T07:28:44.868Z,13.80
2022-10-24T07:31:17.579Z,13.90
2022-10-24T07:33:45.939Z,13.90
2022-10-24T07:36:18.243Z,13.90
2022-10-24T07:38:46.699Z,14.00
2022-10-24T07:41:15.112Z,14.10
2022-10-24T07:43:43.477Z,14.20
2022-10-24T07:46:14.722Z,14.30
2022-10-24T07:48:43.469Z,14.30
2022-10-24T07:51:13.953Z,14.30
2022-10-24T07:53:43.449Z,14.30
2022-10-24T07:56:14.512Z,14.40
2022-10-24T07:58:44.426Z,14.40
2022-10-24T08:01:17.635Z,14.40
2022-10-24T08:03:46.746Z,14.40
2022-10-24T08:06:17.525Z,14.60
2022-10-24T08:08:46.488Z,14.80
2022-10-24T08:11:16.915Z,15.00
2022-10-24T08:13:46.601Z,15.10
2022-10-24T08:16:18.222Z,15.10
2022-10-24T08:18:46.473Z,15.10
2022-10-24T08:21:16.815Z,15.10
2022-10-24T08:23:46.850Z,15.10
2022-10-24T08:26:17.285Z,15.20
2022-10-24T08:28:46.319Z,15.20
2022-10-24T08:31:17.986Z,15.30
2022-10-24T08:33:47.335Z,15.30
2022-10-24T08:36:20.472Z,15.50
2022-10-24T08:38:48.743Z,15.50
2022-10-24T08:41:25.534Z,15.50
2022-10-24T08:43:54.215Z,15.60
2022-10-24T08:46:38.357Z,15.60
2022-10-24T08:49:14.778Z,15.70
2022-10-24T08:51:47.403Z,15.60
2022-10-24T08:54:19.131Z,15.70
2022-10-24T08:56:48.066Z,15.70
2022-10-24T08:59:16.257Z,15.80
2022-10-24T09:01:49.831Z,15.80
2022-10-24T09:04:21.220Z,15.80
2022-10-24T09:06:51.413Z,15.80
2022-10-24T09:09:24.496Z,15.80
2022-10-24T09:11:55.718Z,15.90
2022-10-24T09:14:27.869Z,15.90
2022-10-24T09:17:00.228Z,15.90
2022-10-24T09:19:39.834Z,15.90
2022-10-24T09:22:09.339Z,16.00
2022-10-24T09:24:43.928Z,16.00
2022-10-24T09:27:17.129Z,16.10
2022-10-24T09:29:45.668Z,16.20
2022-10-24T09:32:20.532Z,16.30
2022-10-24T09:34:49.394Z,16.30
2022-10-24T09:37:43.981Z,16.40
2022-10-24T09:40:19.251Z,16.50
2022-10-24T09:42:55.539Z,16.70
2022-10-24T09:45:45.452Z,16.70
2022-10-24T09:48:26.038Z,16.90
2022-10-24T09:50:58.129Z,17.00
2022-10-24T09:53:28.994Z,17.10
2022-10-24T09:55:59.893Z,17.20
2022-10-24T09:58:33.058Z,17.30
2022-10-24T10:01:07.553Z,17.30
2022-10-24T10:03:37.445Z,17.40
2022-10-24T10:06:16.046Z,17.50
2022-10-24T10:08:51.447Z,17.60
2022-10-24T10:11:26.852Z,17.70
2022-10-24T10:13:56.065Z,17.80
2022-10-24T10:16:26.934Z,17.80
2022-10-24T10:19:05.139Z,17.80
2022-10-24T10:21:57.238Z,17.90
2022-10-24T10:24:27.788Z,18.00
2022-10-24T10:26:56.022Z,18.10
2022-10-24T10:29:25.753Z,18.30
2022-10-24T10:31:59.943Z,18.40
2022-10-24T10:34:35.903Z,18.40
2022-10-24T10:37:25.088Z,18.40
2022-10-24T10:40:19.456Z,18.40
2022-10-24T10:43:03.787Z,18.50
2022-10-24T10:45:42.868Z,18.70
2022-10-24T10:48:29.376Z,18.60
2022-10-24T10:51:08.143Z,18.50
2022-10-24T10:53:41.646Z,18.20
2022-10-24T10:56:22.944Z,18.20
2022-10-24T10:59:01.288Z,18.20
2022-10-24T11:01:36.814Z,18.10
2022-10-24T11:04:15.034Z,18.20
2022-10-24T11:06:52.795Z,18.20
2022-10-24T11:09:30.987Z,18.30
2022-10-24T11:12:11.341Z,18.30
2022-10-24T11:14:43.354Z,18.30
2022-10-24T11:17:19.520Z,18.40
2022-10-24T11:19:57.349Z,18.30
2022-10-24T11:22:30.818Z,18.40
2022-10-24T11:25:03.423Z,18.50
2022-10-24T11:27:40.445Z,18.60
2022-10-24T11:30:15.604Z,18.50
2022-10-24T11:32:50.343Z,18.50
2022-10-24T11:35:26.700Z,18.80
2022-10-24T11:38:01.042Z,18.90
2022-10-24T11:40:31.502Z,19.00
2022-10-24T11:43:08.113Z,19.00
2022-10-24T11:45:44.909Z,18.90
2022-10-24T11:48:18.347Z,18.80
2022-10-24T11:50:51.166Z,18.70
2022-10-24T11:53:41.904Z,18.70
2022-10-24T11:56:18.098Z,18.70
2022-10-24T11:58:53.868Z,18.60
2022-10-24T12:01:42.218Z,18.70
2022-10-24T12:04:37.338Z,18.70
2022-10-24T12:07:44.387Z,18.70
2022-10-24T12:10:28.645Z,18.70
2022-10-24T12:13:16.366Z,18.60
2022-10-24T12:15:52.376Z,18.60
2022-10-24T12:18:33.469Z,18.50
2022-10-24T12:21:06.092Z,18.60
2022-10-24T12:23:35.257Z,18.50
2022-10-24T12:26:10.122Z,18.60
2022-10-24T12:28:39.610Z,18.40
2022-10-24T12:31:22.349Z,18.30
2022-10-24T12:34:27.559Z,18.30
2022-10-24T12:37:11.818Z,18.20
2022-10-24T12:39:45.791Z,18.30
2022-10-24T12:42:38.779Z,18.30
2022-10-24T12:45:30.469Z,18.30
2022-10-24T12:48:33.353Z,18.30
2022-10-24T12:51:04.582Z,18.20
2022-10-24T12:54:00.470Z,18.20
2022-10-24T12:56:29.622Z,18.20
2022-10-24T12:59:02.200Z,18.30
2022-10-24T13:01:37.971Z,18.30
2022-10-24T13:04:51.684Z,18.20
2022-10-24T13:07:50.642Z,18.40
2022-10-24T13:10:31.718Z,18.40
2022-10-24T13:13:28.883Z,18.60
2022-10-24T13:16:02.879Z,18.70
2022-10-24T13:18:44.114Z,18.90
2022-10-24T13:21:21.371Z,18.90
2022-10-24T13:23:50.930Z,18.70
2022-10-24T13:26:39.695Z,18.70
2022-10-24T13:29:13.748Z,18.70
2022-10-24T13:31:49.458Z,18.80
2022-10-24T13:34:34.013Z,18.70
2022-10-24T13:37:17.354Z,18.70
2022-10-24T13:39:52.924Z,18.70
2022-10-24T13:42:26.704Z,18.70
2022-10-24T13:45:00.719Z,18.60
2022-10-24T13:47:34.960Z,18.40
2022-10-24T13:50:12.037Z,18.30
2022-10-24T13:52:49.046Z,18.30
2022-10-24T13:55:26.245Z,18.30
2022-10-24T13:57:59.926Z,18.30
2022-10-24T14:00:30.183Z,18.30
2022-10-24T14:03:02.428Z,18.40
2022-10-24T14:05:34.867Z,18.40
2022-10-24T14:08:03.843Z,18.40
2022-10-24T14:10:32.778Z,18.40
2022-10-24T14:13:02.155Z,18.40
2022-10-24T14:15:33.849Z,18.40
2022-10-24T14:18:08.544Z,18.30
2022-10-24T14:20:38.425Z,18.20
2022-10-24T14:23:24.506Z,18.20
2022-10-24T14:25:57.627Z,18.20
2022-10-24T14:28:28.709Z,18.20
2022-10-24T14:30:58.857Z,18.10
2022-10-24T14:33:29.888Z,18.10
2022-10-24T14:36:00.167Z,18.10
2022-10-24T14:38:29.745Z,18.00
2022-10-24T14:41:08.755Z,18.00
2022-10-24T14:43:42.220Z,17.90
2022-10-24T14:46:35.575Z,17.90
2022-10-24T14:49:21.332Z,17.90
2022-10-24T14:54:23.308Z,17.80
2022-10-24T14:56:54.431Z,17.80
2022-10-24T14:59:28.598Z,17.80
2022-10-24T15:01:58.999Z,17.80
2022-10-24T15:04:38.044Z,17.70
2022-10-24T15:07:20.958Z,17.70
2022-10-24T15:09:54.956Z,17.70
2022-10-24T15:12:33.308Z,17.60
2022-10-24T15:15:23.553Z,17.50
2022-10-24T15:17:53.286Z,17.40
2022-10-24T15:20:27.566Z,17.40
2022-10-24T15:23:00.708Z,17.40
2022-10-24T15:25:34.792Z,17.30
2022-10-24T15:28:06.850Z,17.30
2022-10-24T15:30:37.366Z,17.30
2022-10-24T15:33:07.724Z,17.30
2022-10-24T15:35:40.506Z,17.30
2022-10-24T15:38:15.796Z,17.20
2022-10-24T15:40:46.003Z,17.20
2022-10-24T15:43:16.342Z,17.10
2022-10-24T15:45:46.110Z,17.10
2022-10-24T15:48:14.524Z,17.00
2022-10-24T15:50:47.802Z,17.00
2022-10-24T15:53:20.070Z,16.80
2022-10-24T15:55:48.763Z,16.80
2022-10-24T15:58:19.723Z,16.70
2022-10-24T16:00:48.078Z,16.70
2022-10-24T16:03:21.335Z,16.60
2022-10-24T16:05:54.648Z,16.60
2022-10-24T16:08:26.394Z,16.50
2022-10-24T16:10:54.974Z,16.40
2022-10-24T16:13:24.800Z,16.40
2022-10-24T16:15:53.308Z,16.30
2022-10-24T16:18:22.344Z,16.30
2022-10-24T16:20:51.993Z,16.20
2022-10-24T16:23:20.576Z,16.10
2022-10-24T16:25:48.841Z,16.10
2022-10-24T16:28:22.751Z,16.10
2022-10-24T16:30:54.626Z,16.00
2022-10-24T16:33:25.414Z,15.90
2022-10-24T16:35:55.198Z,15.90
2022-10-24T16:38:23.630Z,15.70
2022-10-24T16:40:51.840Z,15.70
2022-10-24T16:43:21.116Z,15.60
2022-10-24T16:45:58.404Z,15.50
2022-10-24T16:48:27.347Z,15.40
2022-10-24T16:50:57.554Z,15.30
2022-10-24T16:53:26.018Z,15.30
2022-10-24T16:55:56.249Z,15.40
2022-10-24T16:58:24.524Z,15.30
2022-10-24T17:00:52.923Z,15.30
2022-10-24T17:03:21.252Z,15.30
2022-10-24T17:05:52.141Z,15.30
2022-10-24T17:08:21.981Z,15.30
2022-10-24T17:10:50.333Z,15.40
2022-10-24T17:13:18.767Z,15.40
2022-10-24T17:15:47.226Z,15.50
2022-10-24T17:18:15.635Z,15.50
2022-10-24T17:20:45.117Z,15.50
2022-10-24T17:23:15.844Z,15.50
2022-10-24T17:25:46.758Z,15.50
2022-10-24T17:28:17.146Z,15.40
2022-10-24T17:30:45.648Z,15.40
2022-10-24T17:33:14.577Z,15.30
2022-10-24T17:35:47.839Z,15.30
2022-10-24T17:38:30.399Z,15.30
2022-10-24T17:41:07.087Z,15.30
2022-10-24T17:43:35.544Z,15.20
2022-10-24T17:46:04.134Z,15.20
2022-10-24T17:48:32.721Z,15.30
2022-10-24T17:51:02.248Z,15.20
2022-10-24T17:53:30.639Z,15.20
2022-10-24T17:56:00.487Z,15.20
2022-10-24T17:58:28.820Z,15.10
2022-10-24T18:00:57.112Z,15.00
2022-10-24T18:03:25.559Z,15.10
2022-10-24T18:05:53.774Z,15.10
2022-10-24T18:08:22.582Z,15.00
2022-10-24T18:10:51.326Z,15.00
2022-10-24T18:13:21.036Z,15.00
2022-10-24T18:15:49.367Z,15.10
2022-10-24T18:18:20.379Z,15.00
2022-10-24T18:20:48.693Z,15.00
2022-10-24T18:23:16.981Z,15.00
2022-10-24T18:25:45.558Z,15.00
2022-10-24T18:28:13.995Z,15.10
2022-10-24T18:30:43.734Z,15.00
2022-10-24T18:33:12.434Z,15.10
2022-10-24T18:35:40.775Z,15.00
2022-10-24T18:38:09.083Z,15.00
2022-10-24T18:40:38.859Z,15.00
2022-10-24T18:43:07.577Z,15.00
2022-10-24T18:45:36.915Z,15.00
2022-10-24T18:48:07.671Z,14.90
2022-10-24T18:50:37.008Z,14.90
2022-10-24T18:53:07.470Z,14.80
2022-10-24T18:55:36.890Z,14.80
2022-10-24T18:58:05.432Z,14.70
2022-10-24T19:00:38.230Z,14.70
2022-10-24T19:03:19.033Z,14.70
2022-10-24T19:05:54.543Z,14.70
2022-10-24T19:08:25.324Z,14.70
2022-10-24T19:10:56.384Z,14.70
2022-10-24T19:13:25.587Z,14.70
2022-10-24T19:15:58.331Z,14.80
2022-10-24T19:18:30.127Z,14.80
2022-10-24T19:20:59.660Z,14.70
2022-10-24T19:23:28.360Z,14.80
2022-10-24T19:25:56.658Z,14.80
2022-10-24T19:28:24.957Z,14.80
2022-10-24T19:30:54.057Z,14.70
2022-10-24T19:33:25.162Z,14.70
2022-10-24T19:35:55.291Z,14.80
2022-10-24T19:38:24.534Z,14.80
2022-10-24T19:40:54.416Z,14.70
2022-10-24T19:43:24.599Z,14.70
2022-10-24T19:46:20.676Z,14.80
2022-10-24T19:48:48.444Z,14.70
2022-10-24T19:51:19.586Z,14.70
2022-10-24T19:53:49.516Z,14.70
2022-10-24T19:56:21.457Z,14.80
2022-10-24T19:58:52.291Z,14.70
2022-10-24T20:01:22.255Z,14.70
2022-10-24T20:03:51.898Z,14.70
2022-10-24T20:06:23.814Z,14.80
2022-10-24T20:08:52.165Z,14.70
2022-10-24T20:11:21.449Z,14.60
2022-10-24T20:13:50.446Z,14.60
2022-10-24T20:16:19.058Z,14.60
2022-10-24T20:18:48.138Z,14.60
2022-10-24T20:21:19.165Z,14.70
2022-10-24T20:23:49.852Z,14.70
2022-10-24T20:26:21.575Z,14.70
2022-10-24T20:28:51.411Z,14.70
2022-10-24T20:31:22.345Z,14.70
2022-10-24T20:33:50.799Z,14.70
2022-10-24T20:36:20.834Z,14.70
2022-10-24T20:38:50.660Z,14.70
2022-10-24T20:41:19.529Z,14.60
2022-10-24T20:46:15.977Z,14.70
2022-10-24T20:48:44.331Z,14.70
2022-10-24T20:51:14.574Z,14.70
2022-10-24T20:53:44.005Z,14.50
2022-10-24T20:56:15.339Z,14.50
2022-10-24T20:58:45.163Z,14.50
2022-10-24T21:01:15.429Z,14.50
2022-10-24T21:03:45.163Z,14.50
2022-10-24T21:06:18.137Z,14.50
2022-10-24T21:08:48.210Z,14.50
2022-10-24T21:11:20.894Z,14.60
2022-10-24T21:13:49.125Z,14.60
2022-10-24T21:16:17.479Z,14.60
2022-10-24T21:18:45.952Z,14.60
2022-10-24T21:21:16.355Z,14.60
2022-10-24T21:23:45.257Z,14.60
2022-10-24T21:26:15.158Z,14.50
2022-10-24T21:28:44.848Z,14.50
2022-10-24T21:31:14.914Z,14.50
2022-10-24T21:33:43.839Z,14.40
2022-10-24T21:36:14.306Z,14.40
2022-10-24T21:38:43.746Z,14.30
2022-10-24T21:41:12.321Z,14.30
2022-10-24T21:43:41.957Z,14.30
2022-10-24T21:46:13.605Z,14.30
2022-10-24T21:48:43.341Z,14.20
2022-10-24T21:51:13.049Z,14.10
2022-10-24T21:53:42.849Z,14.20
2022-10-24T21:56:13.592Z,14.20
2022-10-24T21:58:42.399Z,14.20
2022-10-24T22:01:13.474Z,14.10
2022-10-24T22:03:42.501Z,14.00
2022-10-24T22:06:14.009Z,14.00
2022-10-24T22:08:43.560Z,14.00
2022-10-24T22:11:14.120Z,13.90
2022-10-24T22:13:42.520Z,13.90
2022-10-24T22:16:13.878Z,13.90
2022-10-24T22:18:42.874Z,13.90
2022-10-24T22:21:22.109Z,13.90
2022-10-24T22:23:50.476Z,13.90
2022-10-24T22:26:18.840Z,13.80
2022-10-24T22:28:47.040Z,13.90
2022-10-24T22:31:18.099Z,13.80
2022-10-24T22:33:46.606Z,13.80
2022-10-24T22:36:23.614Z,13.70
2022-10-24T22:38:54.472Z,13.70
2022-10-24T22:41:23.989Z,13.70
2022-10-24T22:43:52.889Z,13.70
2022-10-24T22:46:34.951Z,13.60
2022-10-24T22:51:43.845Z,13.60
2022-10-24T22:54:18.013Z,13.50
2022-10-24T22:56:46.942Z,13.50
2022-10-24T22:59:15.908Z,13.50
2022-10-24T23:02:00.889Z,13.40
2022-10-24T23:04:36.000Z,13.40
2022-10-24T23:07:12.694Z,13.40
2022-10-24T23:09:41.139Z,13.40
2022-10-24T23:12:13.756Z,13.40
2022-10-24T23:14:42.660Z,13.40
2022-10-24T23:17:14.711Z,13.40
2022-10-24T23:19:46.937Z,13.30
2022-10-24T23:22:23.118Z,13.30
2022-10-24T23:24:52.655Z,13.30
2022-10-24T23:27:34.450Z,13.30
2022-10-24T23:30:04.192Z,13.30
2022-10-24T23:32:38.525Z,13.30
2022-10-24T23:35:08.265Z,13.30
2022-10-24T23:37:39.032Z,13.30
2022-10-24T23:40:22.052Z,13.20
2022-10-24T23:42:51.523Z,13.20
2022-10-24T23:45:21.768Z,13.20
2022-10-24T23:48:11.289Z,13.20
2022-10-24T23:50:47.849Z,13.10
2022-10-24T23:53:25.023Z,13.10
2022-10-24T23:55:53.637Z,13.10
2022-10-24T23:58:21.919Z,13.20
